Main page
METAR-TAF:

METAR-TAF

Airports :

AAC Middle Wallop

Middle Wallop, England

latitude: 51-09N, longitude: 001-34W, elevation: 91 m

Current weather observation

The report was made 56 minutes ago, at 04:50 UTC
Wind 6 kt from the Southwest
Temperature 7°C
Humidity 93%
Pressure 1015 hPa
Visibility 10 km or more

METAR: EGVP 130450Z AUTO 23006KT 9999 // NCD 07/06 Q1015

Time: 05:46 (05:46 UTC)

Forecast

The report was made 13 hours and 1 minutes ago, at 16:45 UTC
Forecast valid from 12 at 18 UTC to 12 at 21 UTC
Wind 10 kt from the South/Southwest
Visibility 10 km or more
Few clouds at a height of 2500 ft
Temporary
from 12 at 18 UTC to 12 at 21 UTC
Visibility: 7000 m
Scattered clouds at a height of 2000 ft, Cumulonimbus.
rain showers
Probability 30% :
Temporary
from 12 at 18 UTC to 12 at 21 UTC
Wind 15 kt from the South/Southwest with gusts up to 25 kt
Visibility: 3500 m
thunderstorm, heavy rain

TAF: EGVP 121645Z 1218/1221 20010KT 9999 FEW025 TEMPO 1218/1221 7000 SHRA SCT020CB PROB30 TEMPO 1218/1221 21015G25KT 3500 +TSRA

Weather observations and forecasts of more than 4000 airports (METAR and TAF reports).

The available stations are represented by yellow and red dots on the map.

Hover mouse over dot to see the name of the station.

Then click to see weather observations and forecasts.

To change the map : click on the green buttons with a black cross to zoom in, on the green button with a dash to zoom out, or on the green arrows for adjacent maps.


METAR-TAF: